< < Back
Terminal Aerodrome Forecast


Current Version              Previous Versions:   1  2  3  4  5  6  7  8  9  

Terminal Aerodrome Forecast

703
FTUS42 KGSP 251134
TAFGSP
TAF
KGSP 251134Z 2512/2612 03006KT P6SM SCT060 BKN250
     FM252300 05008KT P6SM SCT050 BKN250
     FM260500 05007KT P6SM BKN050
     FM260800 04006KT P6SM BKN015
     FM261000 04006KT P6SM BKN007=

Latest METAR

888
SAUS70 KWBC 260400 RRD
MTRGSP
METAR KGSP 260353Z AUTO 04005KT 10SM FEW090 25/19 A3016 RMK AO2 SLP200
T02500189


USA.gov is the U.S. government's official web portal to all federal, state and local government web resources and services.